Time;durP1;ratioP1;P1;durP2;ratioP2;P2;SDS_P1;SDS_P2;PMS_P1;PMS_P2;Temp;Humidity;BMP_temperature;BMP_pressure;BME280_temperature;BME280_humidity;BME280_pressure;Samples;Min_cycle;Max_cycle;Signal;HPM_P1;HPM_P2
2021/06/13 00:00:20;;;;;;;10.27;4.18;;;;;;;15.70;100.00;94529.84;5095501;28;20229;-81
2021/06/13 00:02:46;;;;;;;6.05;4.00;;;;;;;15.74;100.00;94530.22;5095395;28;20263;-80
2021/06/13 00:05:15;;;;;;;6.53;4.00;;;;;;;15.78;100.00;94531.41;5095274;28;20230;-80
2021/06/13 00:07:41;;;;;;;6.45;4.38;;;;;;;15.85;100.00;94532.19;5095051;28;20722;-80
2021/06/13 00:10:10;;;;;;;5.80;3.95;;;;;;;15.88;100.00;94515.13;5095459;28;20194;-80
2021/06/13 00:12:36;;;;;;;7.53;4.20;;;;;;;15.98;100.00;94522.56;5095012;28;20602;-81
2021/06/13 00:15:03;;;;;;;5.72;3.58;;;;;;;16.01;100.00;94519.50;5095112;28;20661;-80
2021/06/13 00:17:29;;;;;;;6.57;4.78;;;;;;;15.96;100.00;94525.41;5095146;28;20202;-81
2021/06/13 00:19:55;;;;;;;9.68;4.30;;;;;;;15.93;100.00;94527.66;5095247;28;20737;-81
2021/06/13 00:22:22;;;;;;;7.07;4.18;;;;;;;15.89;100.00;94527.28;5094811;28;20194;-80
2021/06/13 00:24:48;;;;;;;6.50;4.72;;;;;;;15.84;100.00;94530.56;5094695;28;20593;-80
2021/06/13 00:27:14;;;;;;;7.15;4.95;;;;;;;15.85;100.00;94536.63;5095221;28;20202;-79
2021/06/13 00:29:40;;;;;;;10.80;5.07;;;;;;;15.81;100.00;94536.25;5094802;28;20205;-79
2021/06/13 00:32:07;;;;;;;6.75;4.43;;;;;;;15.82;100.00;94534.41;5094761;28;20600;-81
2021/06/13 00:34:34;;;;;;;6.65;5.18;;;;;;;15.83;100.00;94533.41;5094749;28;20201;-80
2021/06/13 00:37:00;;;;;;;7.78;5.75;;;;;;;15.85;100.00;94532.19;5093466;28;20860;-78
2021/06/13 00:39:27;;;;;;;9.07;5.47;;;;;;;15.94;100.00;94539.78;5094826;28;20210;-79
2021/06/13 00:41:55;;;;;;;7.35;5.40;;;;;;;15.90;100.00;94540.25;5094157;28;20220;-81
2021/06/13 00:44:21;;;;;;;9.07;5.07;;;;;;;15.84;100.00;94538.47;5093781;28;20700;-78
2021/06/13 00:46:47;;;;;;;8.20;4.80;;;;;;;15.79;100.00;94542.78;5094521;28;20569;-81
2021/06/13 00:49:12;;;;;;;6.45;5.13;;;;;;;15.78;100.00;94538.50;5094408;28;20205;-79
2021/06/13 00:51:38;;;;;;;8.73;6.18;;;;;;;15.75;100.00;94534.44;5094314;28;20202;-82
2021/06/13 00:54:05;;;;;;;9.27;6.10;;;;;;;15.76;100.00;94538.72;5094321;28;20238;-77
2021/06/13 00:56:32;;;;;;;8.05;5.75;;;;;;;15.69;100.00;94548.47;5094214;28;20254;-78
2021/06/13 00:58:59;;;;;;;8.60;6.00;;;;;;;15.69;100.00;94543.22;5094655;28;20204;-76
2021/06/13 01:01:25;;;;;;;16.55;7.15;;;;;;;15.65;100.00;94536.75;5095073;28;20680;-80
2021/06/13 01:03:51;;;;;;;14.95;7.65;;;;;;;15.53;100.00;94537.41;5094184;28;20236;-79
2021/06/13 01:06:23;;;;;;;13.52;8.65;;;;;;;15.53;100.00;94531.34;5086381;28;20217;-78
2021/06/13 01:08:56;;;;;;;13.80;7.50;;;;;;;15.53;100.00;94539.25;5074025;28;20195;-78
2021/06/13 01:11:31;;;;;;;14.82;7.93;;;;;;;15.53;100.00;94539.25;5073617;28;20202;-78
2021/06/13 01:14:05;;;;;;;13.95;7.53;;;;;;;15.56;100.00;94543.28;5074189;28;20221;-76
2021/06/13 01:16:40;;;;;;;11.30;7.43;;;;;;;15.49;100.00;94549.41;5073655;28;20195;-78
2021/06/13 01:19:20;;;;;;;11.93;7.20;;;;;;;15.45;100.00;94542.94;5072944;28;20457;-81
2021/06/13 01:21:54;;;;;;;10.38;6.80;;;;;;;15.41;100.00;94544.38;5073631;28;20437;-78
2021/06/13 01:24:32;;;;;;;11.93;6.50;;;;;;;15.35;100.00;94542.59;5081539;28;20233;-79
2021/06/13 01:27:19;;;;;;;15.27;7.07;;;;;;;15.20;100.00;94539.44;5093579;28;20557;-77
2021/06/13 01:29:48;;;;;;;11.80;7.50;;;;;;;15.05;100.00;94534.44;5093971;28;20198;-78
2021/06/13 01:32:18;;;;;;;9.27;6.53;;;;;;;14.93;100.00;94535.09;5076036;28;20209;-79
2021/06/13 01:34:48;;;;;;;9.20;6.20;;;;;;;14.74;100.00;94528.09;5073449;28;20222;-79
2021/06/13 01:37:17;;;;;;;14.18;7.63;;;;;;;14.67;100.00;94540.44;5073304;28;20589;-78
2021/06/13 01:39:46;;;;;;;12.70;7.95;;;;;;;14.54;100.00;94536.00;5073373;28;20203;-77
2021/06/13 01:42:15;;;;;;;11.98;7.57;;;;;;;14.50;100.00;94524.28;5073074;28;20650;-78
2021/06/13 01:44:44;;;;;;;14.95;8.13;;;;;;;14.47;100.00;94529.94;5073168;28;20592;-78
2021/06/13 01:47:11;;;;;;;11.88;7.68;;;;;;;14.24;100.00;94523.34;5073058;28;20201;-78
2021/06/13 01:49:40;;;;;;;14.18;8.15;;;;;;;14.13;100.00;94535.25;5073109;28;20205;-79
2021/06/13 01:52:08;;;;;;;13.70;7.80;;;;;;;14.00;100.00;94520.28;5072841;28;20214;-79
2021/06/13 01:54:34;;;;;;;12.38;7.47;;;;;;;13.90;100.00;94519.91;5072860;28;20207;-77
2021/06/13 01:57:00;;;;;;;14.80;8.32;;;;;;;13.79;100.00;94520.50;5073034;28;20199;-78
2021/06/13 01:59:27;;;;;;;13.68;7.68;;;;;;;13.63;100.00;94527.78;5072905;28;20239;-78
2021/06/13 02:01:57;;;;;;;15.07;7.40;;;;;;;13.52;100.00;94533.59;5072907;28;20294;-80
2021/06/13 02:04:29;;;;;;;12.07;7.50;;;;;;;13.42;100.00;94525.31;5072816;28;20609;-79
2021/06/13 02:06:57;;;;;;;11.27;7.03;;;;;;;13.33;100.00;94515.00;5086349;28;20202;-78
2021/06/13 02:09:24;;;;;;;14.93;7.77;;;;;;;13.24;100.00;94525.84;5093168;28;20285;-78
2021/06/13 02:11:52;;;;;;;17.08;7.20;;;;;;;13.17;100.00;94515.34;5093277;28;20584;-79
2021/06/13 02:14:20;;;;;;;11.45;6.80;;;;;;;13.19;100.00;94521.22;5092928;28;20202;-80
2021/06/13 02:16:47;;;;;;;17.10;8.93;;;;;;;13.39;100.00;94528.34;5092830;28;20292;-80
2021/06/13 02:19:17;;;;;;;14.93;8.40;;;;;;;13.41;100.00;94518.47;5092915;28;20275;-79
2021/06/13 02:21:45;;;;;;;13.98;7.90;;;;;;;13.48;100.00;94522.69;5093285;28;20198;-79
2021/06/13 02:24:16;;;;;;;13.88;8.43;;;;;;;13.58;100.00;94522.31;5092686;28;20244;-79
2021/06/13 02:26:44;;;;;;;13.60;7.33;;;;;;;13.67;100.00;94521.13;5093003;28;20284;-79
2021/06/13 02:29:12;;;;;;;11.65;7.60;;;;;;;13.76;100.00;94526.19;5092837;28;20217;-78
2021/06/13 02:31:41;;;;;;;10.07;6.85;;;;;;;13.71;100.00;94520.72;5092758;28;20246;-80
2021/06/13 02:34:09;;;;;;;13.35;7.07;;;;;;;13.61;100.00;94526.38;5093019;28;20202;-79
2021/06/13 02:36:35;;;;;;;10.93;6.35;;;;;;;13.52;100.00;94523.09;5093174;28;20208;-79
2021/06/13 02:39:06;;;;;;;13.32;7.43;;;;;;;13.45;100.00;94530.16;5092845;28;20198;-79
2021/06/13 02:41:32;;;;;;;14.43;7.60;;;;;;;13.44;100.00;94532.00;5092738;28;20602;-79
2021/06/13 02:43:58;;;;;;;13.35;6.30;;;;;;;13.42;100.00;94538.44;5092432;28;20656;-78
2021/06/13 02:46:25;;;;;;;11.70;6.30;;;;;;;13.39;100.00;94533.56;5092660;28;20198;-79
2021/06/13 02:48:51;;;;;;;12.40;7.15;;;;;;;13.32;100.00;94533.56;5092590;28;20679;-79
2021/06/13 02:51:20;;;;;;;12.00;6.53;;;;;;;13.23;100.00;94535.53;5092568;28;20530;-79
2021/06/13 02:53:51;;;;;;;11.52;7.20;;;;;;;13.19;100.00;94538.75;5092566;28;20201;-78
2021/06/13 02:56:25;;;;;;;17.13;7.95;;;;;;;13.23;100.00;94538.16;5092456;28;20202;-78
2021/06/13 02:58:59;;;;;;;14.45;8.05;;;;;;;13.21;100.00;94540.19;5092853;28;20209;-79
2021/06/13 03:01:26;;;;;;;12.45;6.85;;;;;;;13.21;100.00;94534.13;5092724;28;20216;-79
2021/06/13 03:03:53;;;;;;;12.75;7.28;;;;;;;13.18;100.00;94537.94;5092834;28;20195;-79
2021/06/13 03:06:21;;;;;;;16.85;7.22;;;;;;;13.13;100.00;94535.91;5085578;28;20194;-79
2021/06/13 03:08:47;;;;;;;10.10;6.28;;;;;;;13.03;100.00;94548.59;5075961;28;20203;-78
2021/06/13 03:11:14;;;;;;;11.55;6.68;;;;;;;12.93;100.00;94548.16;5076004;28;20206;-79
2021/06/13 03:13:43;;;;;;;15.43;6.17;;;;;;;12.85;100.00;94543.88;5076068;28;20194;-78
2021/06/13 03:16:10;;;;;;;11.27;6.88;;;;;;;12.79;100.00;94539.44;5075958;28;20194;-78
2021/06/13 03:18:36;;;;;;;12.43;7.70;;;;;;;12.75;100.00;94544.22;5075925;28;20203;-79
2021/06/13 03:21:04;;;;;;;9.90;7.13;;;;;;;12.78;100.00;94553.53;5075834;28;20206;-77
2021/06/13 03:23:33;;;;;;;15.77;6.93;;;;;;;12.77;100.00;94544.88;5076799;28;20207;-82
2021/06/13 03:26:02;;;;;;;11.95;6.95;;;;;;;12.79;100.00;94544.66;5096137;28;20230;-79
2021/06/13 03:28:29;;;;;;;9.93;6.27;;;;;;;12.81;100.00;94552.34;5096063;28;20232;-78
2021/06/13 03:30:57;;;;;;;13.25;7.32;;;;;;;12.86;100.00;94555.97;5088479;28;20411;-78
2021/06/13 03:33:25;;;;;;;13.05;7.78;;;;;;;12.94;100.00;94547.16;5075733;28;20203;-80
2021/06/13 03:35:52;;;;;;;14.85;7.03;;;;;;;13.00;100.00;94556.84;5075508;28;20553;-77
2021/06/13 03:38:20;;;;;;;17.40;6.95;;;;;;;13.06;100.00;94560.50;5075340;28;20206;-80
2021/06/13 03:40:47;;;;;;;13.90;6.45;;;;;;;13.10;100.00;94556.47;5075623;28;20201;-80
2021/06/13 03:43:14;;;;;;;9.02;5.82;;;;;;;13.20;100.00;94559.53;5075541;28;20199;-80
2021/06/13 03:45:41;;;;;;;13.90;6.90;;;;;;;13.27;100.00;94556.91;5075332;28;20562;-78
2021/06/13 03:48:11;;;;;;;12.82;6.60;;;;;;;13.30;100.00;94567.81;5075315;28;20202;-78
2021/06/13 03:50:37;;;;;;;9.80;6.13;;;;;;;13.30;100.00;94561.78;5075184;28;20206;-79
2021/06/13 03:53:04;;;;;;;11.43;6.90;;;;;;;13.35;100.00;94556.78;5075108;28;20662;-79
2021/06/13 03:55:31;;;;;;;8.97;6.13;;;;;;;13.38;100.00;94564.25;5075439;28;20656;-78
2021/06/13 03:57:58;;;;;;;11.38;7.43;;;;;;;13.45;100.00;94564.28;5074195;28;20441;-79
2021/06/13 04:00:26;;;;;;;9.20;6.25;;;;;;;13.54;100.00;94567.50;5075111;28;20206;-79
2021/06/13 04:02:53;;;;;;;11.20;6.85;;;;;;;13.62;100.00;94562.91;5075033;28;20628;-78
2021/06/13 04:05:21;;;;;;;11.57;6.22;;;;;;;13.63;100.00;94561.06;5074843;28;20252;-79
2021/06/13 04:07:48;;;;;;;11.85;6.13;;;;;;;13.64;100.00;94558.25;5075070;28;20199;-78
2021/06/13 04:10:15;;;;;;;10.05;6.25;;;;;;;13.67;100.00;94560.50;5075110;28;20206;-79
2021/06/13 04:12:42;;;;;;;12.50;6.93;;;;;;;13.67;100.00;94570.16;5075054;28;20558;-80
2021/06/13 04:15:10;;;;;;;12.10;6.10;;;;;;;13.83;100.00;94566.34;5074905;28;20203;-78
2021/06/13 04:17:38;;;;;;;11.15;5.97;;;;;;;13.94;100.00;94583.31;5074564;28;20207;-80
2021/06/13 04:20:11;;;;;;;9.20;5.68;;;;;;;14.04;100.00;94578.50;5075139;28;20286;-79
2021/06/13 04:22:40;;;;;;;10.90;5.63;;;;;;;14.19;100.00;94576.47;5074715;28;20206;-79
2021/06/13 04:25:09;;;;;;;13.63;5.70;;;;;;;14.29;100.00;94583.09;5074631;28;20235;-79
2021/06/13 04:27:37;;;;;;;10.13;5.95;;;;;;;14.21;100.00;94582.31;5074681;28;20195;-79
2021/06/13 04:30:05;;;;;;;8.18;5.15;;;;;;;14.28;100.00;94586.75;5074566;28;20248;-80
2021/06/13 04:32:32;;;;;;;9.30;5.80;;;;;;;14.29;100.00;94586.56;5074784;28;20209;-81
2021/06/13 04:34:59;;;;;;;10.60;5.53;;;;;;;14.37;100.00;94586.34;5074514;28;20289;-79
2021/06/13 04:37:25;;;;;;;6.60;4.38;;;;;;;14.48;100.00;94582.28;5074500;28;20199;-79
2021/06/13 04:39:53;;;;;;;10.57;5.90;;;;;;;14.61;100.00;94592.81;5074381;28;20199;-79
2021/06/13 04:42:21;;;;;;;10.77;5.78;;;;;;;14.87;100.00;94590.31;5074427;28;20206;-80
2021/06/13 04:44:47;;;;;;;9.07;5.72;;;;;;;15.04;100.00;94586.25;5074320;28;20218;-80
2021/06/13 04:47:14;;;;;;;14.40;6.50;;;;;;;15.20;100.00;94586.78;5074363;28;20195;-78
2021/06/13 04:49:43;;;;;;;9.90;5.65;;;;;;;15.33;100.00;94595.41;5074356;28;20668;-78
2021/06/13 04:52:14;;;;;;;9.52;5.85;;;;;;;15.42;100.00;94597.81;5074178;28;20195;-79
2021/06/13 04:55:06;;;;;;;10.55;6.70;;;;;;;15.43;100.00;94594.97;5074440;28;20205;-78
2021/06/13 04:57:42;;;;;;;10.43;5.50;;;;;;;15.57;100.00;94608.06;5074210;28;20206;-78
2021/06/13 05:00:09;;;;;;;11.50;6.53;;;;;;;15.37;100.00;94608.97;5074262;28;20199;-80
2021/06/13 05:02:35;;;;;;;13.45;6.03;;;;;;;15.50;100.00;94608.09;5074243;28;20248;-79
2021/06/13 05:05:02;;;;;;;7.95;5.57;;;;;;;15.40;100.00;94608.53;5074426;28;20223;-80
2021/06/13 05:07:28;;;;;;;13.48;6.88;;;;;;;15.08;100.00;94600.56;5091796;28;20226;-79
2021/06/13 05:09:56;;;;;;;12.23;6.75;;;;;;;14.90;100.00;94610.94;5094370;28;20209;-78
2021/06/13 05:12:23;;;;;;;13.00;6.80;;;;;;;14.99;100.00;94613.16;5094261;28;20198;-80
2021/06/13 05:14:49;;;;;;;13.70;6.78;;;;;;;14.97;100.00;94604.66;5094210;28;20293;-80
2021/06/13 05:17:16;;;;;;;13.98;6.50;;;;;;;15.04;100.00;94616.97;5093865;28;20209;-80
2021/06/13 05:19:42;;;;;;;12.60;7.20;;;;;;;15.04;100.00;94617.78;5093787;28;20200;-80
2021/06/13 05:22:09;;;;;;;15.73;6.38;;;;;;;15.10;100.00;94614.31;5093772;28;20372;-81
2021/06/13 05:24:36;;;;;;;20.08;7.43;;;;;;;15.10;100.00;94618.78;5093687;28;20226;-80
2021/06/13 05:27:04;;;;;;;12.73;6.88;;;;;;;15.17;100.00;94623.00;5094125;28;20632;-80
2021/06/13 05:29:31;;;;;;;11.65;6.55;;;;;;;15.29;100.00;94617.13;5093677;28;20680;-81
2021/06/13 05:31:58;;;;;;;11.45;5.82;;;;;;;15.54;100.00;94619.84;5094146;28;20206;-80
2021/06/13 05:34:24;;;;;;;11.45;5.85;;;;;;;15.83;100.00;94629.00;5093617;28;20202;-79
2021/06/13 05:36:51;;;;;;;12.23;6.03;;;;;;;16.01;99.88;94625.66;5093330;28;20198;-79
2021/06/13 05:39:17;;;;;;;11.35;5.50;;;;;;;16.28;99.07;94628.09;5072230;28;20654;-80
2021/06/13 05:41:43;;;;;;;8.93;5.78;;;;;;;16.09;99.72;94629.88;5053290;28;20210;-80
2021/06/13 05:44:11;;;;;;;8.75;6.25;;;;;;;16.09;100.00;94628.03;5053464;28;20210;-80
2021/06/13 05:46:38;;;;;;;11.05;5.60;;;;;;;16.60;96.27;94633.31;5053154;28;20317;-79
2021/06/13 05:49:04;;;;;;;14.63;6.53;;;;;;;16.23;99.65;94635.84;5054783;28;20199;-77
2021/06/13 05:51:31;;;;;;;12.18;5.60;;;;;;;16.82;93.55;94628.47;5053059;28;20203;-80
2021/06/13 05:53:57;;;;;;;11.90;5.28;;;;;;;16.99;93.68;94628.72;5056537;28;20199;-78
2021/06/13 05:56:24;;;;;;;11.55;6.40;;;;;;;16.85;92.17;94635.94;5053250;28;20257;-77
2021/06/13 05:58:50;;;;;;;9.07;5.20;;;;;;;16.91;91.50;94626.38;5053349;28;20206;-80
2021/06/13 06:01:18;;;;;;;11.73;4.95;;;;;;;16.88;93.92;94640.78;5053923;28;20219;-78
2021/06/13 06:03:45;;;;;;;10.57;5.28;;;;;;;17.11;90.37;94634.88;5054026;28;20200;-79
2021/06/13 06:06:11;;;;;;;12.38;4.70;;;;;;;17.23;89.65;94642.88;5067068;28;20257;-78
2021/06/13 06:08:38;;;;;;;9.25;4.90;;;;;;;17.41;89.71;94643.91;5093143;28;20213;-78
2021/06/13 06:11:05;;;;;;;13.20;5.05;;;;;;;17.87;86.85;94639.88;5094179;28;20205;-78
2021/06/13 06:13:31;;;;;;;12.35;5.10;;;;;;;17.26;88.88;94646.91;5093105;28;20270;-79
2021/06/13 06:15:58;;;;;;;11.63;5.40;;;;;;;17.85;85.33;94644.56;5093257;28;20293;-81
2021/06/13 06:18:26;;;;;;;10.77;4.82;;;;;;;18.44;82.17;94640.25;5092933;28;20205;-77
2021/06/13 06:20:52;;;;;;;10.32;4.80;;;;;;;18.56;80.32;94640.28;5093101;28;20199;-82
2021/06/13 06:23:19;;;;;;;11.43;4.85;;;;;;;18.88;77.73;94641.81;5093162;28;20198;-78
2021/06/13 06:25:45;;;;;;;13.05;5.10;;;;;;;19.10;76.12;94637.56;5092611;28;20237;-79
2021/06/13 06:28:12;;;;;;;8.30;4.50;;;;;;;18.91;76.62;94636.06;5092999;28;20224;-80
2021/06/13 06:30:38;;;;;;;10.90;5.78;;;;;;;17.76;83.25;94641.44;5092856;28;20553;-80
2021/06/13 06:33:05;;;;;;;7.30;4.13;;;;;;;18.24;79.16;94637.94;5092798;28;20244;-81
2021/06/13 06:35:33;;;;;;;7.50;3.92;;;;;;;18.53;81.78;94651.31;5092779;28;20205;-80
2021/06/13 06:37:59;;;;;;;10.05;4.10;;;;;;;18.68;78.73;94653.50;5092986;28;20209;-81
2021/06/13 06:40:26;;;;;;;7.18;4.22;;;;;;;18.25;79.25;94650.13;5094426;28;20197;-80
2021/06/13 06:42:52;;;;;;;11.63;4.20;;;;;;;18.21;80.18;94653.44;5096972;28;20198;-79
2021/06/13 06:45:19;;;;;;;9.43;4.65;;;;;;;17.46;80.40;94659.88;5096816;28;20226;-81
2021/06/13 06:47:46;;;;;;;9.02;4.35;;;;;;;17.47;84.47;94651.75;5096885;28;20212;-79
2021/06/13 06:50:14;;;;;;;8.02;4.03;;;;;;;17.74;81.49;94660.13;5097005;28;20194;-80
2021/06/13 06:52:41;;;;;;;7.72;4.60;;;;;;;17.21;85.12;94666.03;5096881;28;20198;-78
2021/06/13 06:55:09;;;;;;;11.00;4.90;;;;;;;16.74;87.35;94670.94;5096780;28;20209;-80
2021/06/13 06:57:37;;;;;;;12.55;5.70;;;;;;;16.30;86.98;94662.94;5097406;28;20201;-80
2021/06/13 07:00:05;;;;;;;8.77;4.47;;;;;;;17.12;86.55;94669.97;5096609;28;20202;-82
2021/06/13 07:02:32;;;;;;;11.52;4.72;;;;;;;16.79;85.01;94679.00;5096999;28;20294;-82
2021/06/13 07:04:58;;;;;;;7.30;4.50;;;;;;;16.61;84.53;94677.91;5096703;28;20202;-79
2021/06/13 07:07:24;;;;;;;10.32;5.03;;;;;;;16.79;85.08;94686.91;5078980;28;20727;-80
2021/06/13 07:09:52;;;;;;;10.75;5.20;;;;;;;17.10;86.88;94679.94;5076163;28;20206;-80
2021/06/13 07:12:19;;;;;;;9.52;4.57;;;;;;;17.78;83.45;94678.97;5076734;28;20210;-81
2021/06/13 07:14:45;;;;;;;13.43;5.18;;;;;;;17.86;80.25;94680.53;5076913;28;20661;-80
2021/06/13 07:17:12;;;;;;;8.52;4.63;;;;;;;18.12;81.68;94682.03;5075992;28;20718;-80
2021/06/13 07:19:38;;;;;;;13.85;4.95;;;;;;;18.25;78.70;94686.31;5076210;28;20195;-79
2021/06/13 07:22:05;;;;;;;10.85;5.32;;;;;;;18.16;79.31;94682.38;5076657;28;20202;-79
2021/06/13 07:24:34;;;;;;;9.07;4.85;;;;;;;18.15;80.62;94684.22;5086126;28;20229;-79
2021/06/13 07:27:02;;;;;;;15.20;5.20;;;;;;;17.83;81.00;94679.13;5096269;28;20233;-82
2021/06/13 07:29:28;;;;;;;10.05;4.38;;;;;;;18.10;84.29;94682.25;5096281;28;20212;-81
2021/06/13 07:31:55;;;;;;;12.50;5.45;;;;;;;18.21;78.18;94685.16;5096230;28;20205;-80
2021/06/13 07:34:22;;;;;;;13.63;5.35;;;;;;;17.90;81.37;94673.78;5090707;28;20286;-78
2021/06/13 07:36:49;;;;;;;10.50;5.30;;;;;;;17.74;81.06;94673.34;5075743;28;20206;-77
2021/06/13 07:39:16;;;;;;;9.80;4.97;;;;;;;17.36;82.72;94690.22;5075473;28;20680;-78
2021/06/13 07:41:42;;;;;;;13.98;5.03;;;;;;;17.40;84.77;94687.94;5075484;28;20218;-78
2021/06/13 07:44:10;;;;;;;14.20;5.00;;;;;;;17.45;84.01;94682.81;5075842;28;20202;-78
2021/06/13 07:46:37;;;;;;;8.20;4.60;;;;;;;17.66;83.07;94689.50;5075582;28;20233;-78
2021/06/13 07:49:04;;;;;;;6.53;4.20;;;;;;;17.93;83.02;94684.69;5075652;28;20570;-79
2021/06/13 07:51:31;;;;;;;8.65;4.70;;;;;;;18.26;83.06;94680.81;5074771;28;20538;-79
2021/06/13 07:53:57;;;;;;;14.77;4.47;;;;;;;18.35;79.43;94683.91;5075485;28;20208;-77
2021/06/13 07:56:24;;;;;;;7.75;4.20;;;;;;;18.14;78.33;94685.25;5075099;28;20202;-78
2021/06/13 07:58:50;;;;;;;8.27;4.15;;;;;;;18.26;79.60;94682.66;5075547;28;20206;-77
2021/06/13 08:01:18;;;;;;;12.80;5.30;;;;;;;18.18;75.57;94685.59;5075258;28;20203;-76
2021/06/13 08:03:45;;;;;;;13.27;6.07;;;;;;;18.12;76.16;94688.13;5075292;28;20203;-76
2021/06/13 08:06:11;;;;;;;7.53;4.68;;;;;;;18.24;77.22;94679.44;5082085;28;20222;-78
2021/06/13 08:08:38;;;;;;;10.82;5.13;;;;;;;18.10;76.81;94689.38;5095162;28;20668;-76
2021/06/13 08:11:06;;;;;;;8.20;4.85;;;;;;;18.23;78.32;94678.59;5095383;28;20209;-77
2021/06/13 08:13:32;;;;;;;12.50;5.82;;;;;;;18.17;74.47;94684.00;5095025;28;20202;-77
2021/06/13 08:15:59;;;;;;;12.52;4.95;;;;;;;18.33;77.25;94686.00;5095304;28;20569;-79
2021/06/13 08:18:27;;;;;;;8.40;4.40;;;;;;;18.41;74.78;94690.97;5095042;28;20677;-75
2021/06/13 08:20:54;;;;;;;8.82;5.03;;;;;;;18.61;76.44;94685.38;5095153;28;20200;-77
2021/06/13 08:23:21;;;;;;;14.32;5.85;;;;;;;18.43;77.67;94690.72;5094962;28;20198;-77
2021/06/13 08:25:49;;;;;;;10.23;5.75;;;;;;;18.25;74.45;94687.13;5094754;28;20230;-76
2021/06/13 08:28:16;;;;;;;12.32;5.55;;;;;;;18.56;74.86;94684.44;5095170;28;20537;-77
2021/06/13 08:30:43;;;;;;;10.05;4.93;;;;;;;18.26;74.57;94696.66;5094858;28;20205;-76
2021/06/13 08:33:10;;;;;;;10.65;5.28;;;;;;;18.42;75.93;94697.88;5094840;28;20205;-77
2021/06/13 08:35:37;;;;;;;10.38;5.97;;;;;;;18.33;74.83;94696.56;5094856;28;20622;-76
2021/06/13 08:38:05;;;;;;;11.35;5.43;;;;;;;18.10;74.88;94692.84;5094591;28;20445;-78
2021/06/13 08:40:33;;;;;;;11.90;5.85;;;;;;;18.16;74.28;94687.69;5094886;28;20210;-77
2021/06/13 08:43:00;;;;;;;11.32;5.18;;;;;;;18.33;79.58;94686.00;5094872;28;20221;-76
2021/06/13 08:45:28;;;;;;;10.10;5.25;;;;;;;18.47;75.84;94684.78;5094693;28;20222;-78
2021/06/13 08:47:55;;;;;;;16.63;6.30;;;;;;;18.44;74.66;94695.78;5094787;28;20231;-76
2021/06/13 08:50:22;;;;;;;14.00;6.15;;;;;;;18.53;74.17;94688.34;5094473;28;20194;-75
2021/06/13 08:52:52;;;;;;;14.95;5.72;;;;;;;18.57;74.84;94683.38;5094409;28;20202;-78
2021/06/13 08:55:21;;;;;;;12.13;5.60;;;;;;;18.52;75.91;94683.28;5094623;28;20198;-78
2021/06/13 08:57:49;;;;;;;10.05;5.43;;;;;;;18.51;74.23;94684.31;5094655;28;20538;-78
2021/06/13 09:00:18;;;;;;;12.25;4.93;;;;;;;18.54;74.06;94689.16;5094148;28;20201;-78
2021/06/13 09:02:45;;;;;;;10.02;4.78;;;;;;;18.38;74.05;94691.41;5094040;28;20205;-78
2021/06/13 09:05:12;;;;;;;13.38;5.68;;;;;;;18.17;76.30;94689.28;5093402;28;20194;-78
2021/06/13 09:07:48;;;;;;;11.75;5.43;;;;;;;18.07;75.40;94689.84;5094102;28;20638;-77
2021/06/13 09:10:22;;;;;;;10.07;5.38;;;;;;;18.04;76.35;94693.72;5094161;28;20219;-77
2021/06/13 09:12:49;;;;;;;12.23;5.38;;;;;;;18.14;75.38;94701.13;5093894;28;20238;-77
2021/06/13 09:15:16;;;;;;;9.68;5.28;;;;;;;18.22;72.40;94697.34;5094155;28;20200;-77
2021/06/13 09:17:44;;;;;;;9.13;5.43;;;;;;;18.26;72.36;94695.88;5093778;28;20699;-76
2021/06/13 09:20:19;;;;;;;11.63;5.00;;;;;;;18.47;71.99;94700.63;5094155;28;20198;-76
2021/06/13 09:23:12;;;;;;;11.23;4.13;;;;;;;18.36;71.71;94711.97;5093708;28;20198;-76
2021/06/13 09:25:47;;;;;;;9.30;4.22;;;;;;;18.36;75.52;94708.53;5168268;27;20288;-78
2021/06/13 09:28:17;;;;;;;11.18;3.90;;;;;;;18.30;70.13;94710.22;5151356;27;20200;-80
2021/06/13 09:30:45;;;;;;;10.88;4.22;;;;;;;18.41;74.94;94709.47;5151821;27;20654;-78
2021/06/13 09:33:15;;;;;;;11.50;4.18;;;;;;;18.42;71.42;94713.72;5152255;27;20540;-82
2021/06/13 09:35:45;;;;;;;8.40;3.88;;;;;;;18.40;72.18;94710.53;5152239;27;20571;-78
2021/06/13 09:38:19;;;;;;;6.40;3.83;;;;;;;18.28;71.58;94712.31;5151768;27;20196;-80
2021/06/13 09:40:51;;;;;;;7.20;4.00;;;;;;;18.45;71.34;94713.28;5151398;27;20200;-78
2021/06/13 09:43:21;;;;;;;10.07;4.20;;;;;;;18.05;72.61;94703.28;5151873;27;20391;-79
2021/06/13 09:46:00;;;;;;;9.43;3.85;;;;;;;18.26;72.28;94707.25;5151813;27;20566;-78
2021/06/13 09:48:27;;;;;;;7.53;3.15;;;;;;;18.36;68.44;94706.69;5151494;27;20192;-78
2021/06/13 09:50:56;;;;;;;9.63;5.05;;;;;;;18.44;73.57;94706.38;5151371;27;20200;-78
2021/06/13 09:53:28;;;;;;;11.45;4.70;;;;;;;18.22;73.64;94710.53;5151315;27;20227;-77
2021/06/13 09:56:15;;;;;;;6.30;3.85;;;;;;;18.47;74.10;94711.22;5151375;27;20196;-78
2021/06/13 09:59:00;;;;;;;9.05;4.43;;;;;;;18.54;73.44;94715.59;5151466;27;20192;-78
2021/06/13 10:01:30;;;;;;;10.23;4.40;;;;;;;18.60;72.16;94710.22;5151112;27;20547;-77
2021/06/13 10:03:57;;;;;;;8.23;3.47;;;;;;;18.92;75.17;94717.06;5151081;27;20713;-79
2021/06/13 10:06:23;;;;;;;7.50;3.08;;;;;;;19.02;73.39;94717.31;5150945;27;20200;-79
2021/06/13 10:08:50;;;;;;;7.38;3.17;;;;;;;18.94;65.38;94710.50;5151519;27;20562;-79
2021/06/13 10:11:20;;;;;;;5.97;2.83;;;;;;;18.80;67.30;94706.44;5151361;27;20196;-79
2021/06/13 10:13:52;;;;;;;9.80;4.20;;;;;;;18.66;69.52;94709.28;5151204;27;20227;-79
2021/06/13 10:16:43;;;;;;;10.27;3.75;;;;;;;18.49;72.42;94705.69;5150947;27;20204;-78
2021/06/13 10:19:12;;;;;;;9.05;4.43;;;;;;;18.74;74.56;94702.88;5151122;27;20204;-79
2021/06/13 10:21:44;;;;;;;8.23;3.42;;;;;;;18.79;69.49;94702.19;5150966;27;20207;-78
2021/06/13 10:24:13;;;;;;;6.50;2.97;;;;;;;18.75;68.16;94712.44;5150748;27;20327;-79
2021/06/13 10:26:44;;;;;;;5.50;2.63;;;;;;;18.92;66.38;94709.94;5150727;27;20213;-79
2021/06/13 10:29:12;;;;;;;7.55;3.30;;;;;;;18.96;66.09;94707.63;5138818;27;20446;-81
2021/06/13 10:31:39;;;;;;;8.25;3.20;;;;;;;18.82;63.70;94705.19;5140688;27;20252;-79
2021/06/13 10:34:06;;;;;;;8.02;3.72;;;;;;;18.71;67.01;94705.97;5150499;27;20200;-78
2021/06/13 10:36:34;;;;;;;10.90;3.53;;;;;;;18.77;62.92;94698.94;5140083;27;20730;-78
2021/06/13 10:39:01;;;;;;;7.88;3.30;;;;;;;18.76;63.70;94697.34;5136619;27;20275;-78
2021/06/13 10:41:27;;;;;;;11.25;3.25;;;;;;;18.75;69.33;94699.19;5136625;27;20292;-78
2021/06/13 10:44:01;;;;;;;6.03;3.08;;;;;;;19.02;64.65;94690.84;5136646;27;20197;-77
2021/06/13 10:46:31;;;;;;;7.90;2.80;;;;;;;19.31;63.82;94696.25;5136657;27;20204;-80
2021/06/13 10:49:01;;;;;;;4.07;2.20;;;;;;;19.27;57.92;94697.72;5136141;27;20292;-81
2021/06/13 10:51:34;;;;;;;4.47;2.20;;;;;;;19.30;56.42;94694.63;5136419;27;20686;-81
2021/06/13 10:54:30;;;;;;;12.05;2.50;;;;;;;19.48;56.84;94691.81;5136635;27;20201;-79
2021/06/13 10:57:39;;;;;;;10.30;2.17;;;;;;;19.70;63.35;94688.56;5136504;27;20289;-79
2021/06/13 11:00:27;;;;;;;11.43;3.20;;;;;;;19.95;64.04;94690.91;5136140;27;20243;-80
2021/06/13 11:03:01;;;;;;;7.10;2.22;;;;;;;19.81;62.22;94698.34;5136428;27;20201;-79
2021/06/13 11:05:46;;;;;;;5.18;2.35;;;;;;;19.50;58.31;94692.41;5136024;27;20221;-79
2021/06/13 11:08:13;;;;;;;3.42;2.05;;;;;;;19.50;58.18;94696.88;5135927;27;20201;-79
2021/06/13 11:10:41;;;;;;;5.22;2.10;;;;;;;19.50;56.42;94695.06;5136018;27;20434;-78
2021/06/13 11:13:11;;;;;;;3.97;1.85;;;;;;;19.59;52.88;94696.31;5136287;27;20243;-79
2021/06/13 11:15:50;;;;;;;4.68;1.92;;;;;;;19.67;53.53;94702.25;5136111;27;20207;-79
2021/06/13 11:18:22;;;;;;;5.30;1.75;;;;;;;19.84;55.02;94692.59;5135986;27;20201;-78
2021/06/13 11:20:52;;;;;;;6.28;1.98;;;;;;;20.14;55.99;94696.84;5135299;27;20201;-79
2021/06/13 11:23:46;;;;;;;2.35;1.58;;;;;;;20.10;60.29;94693.06;5135984;27;20224;-78
2021/06/13 11:26:30;;;;;;;9.02;2.45;;;;;;;20.37;56.89;94695.13;5135731;27;20264;-80
2021/06/13 11:28:57;;;;;;;3.20;1.90;;;;;;;20.33;54.90;94692.97;5135815;27;20203;-78
2021/06/13 11:31:25;;;;;;;4.05;1.55;;;;;;;20.39;52.05;94690.41;5135882;27;20231;-80